MDA191 RCSS-RCQC
Flight info
| Callsign | MDA191 |
|---|---|
| Flight time | 0h 40m |
| Altitude | 12000 |
| Route | HLG1C HLG A1 SWORD DCT MASON |
| Aircraft | E190/M-SDE3GILORVW/S |
Departure
| Time | 2026-04-26 17:23 |
|---|---|
| Airport | Taipei Songshan International Airport (RCSS) |
Arrival
| Time | 2026-04-26 18:03 |
|---|---|
| Airport | Penghu Magong Airport (RCQC) |
| Time | Latitude | Longitude | Altitude | Speed | Heading |
|---|---|---|---|---|---|
| 2026-04-26 17:05 | 25.06482 | 121.55049 | 26 ft | 0 kts | 178° |
| 2026-04-26 17:16 | 25.06489 | 121.55049 | 29 ft | 4 kts | 178° |
| 2026-04-26 17:16 | 25.06517 | 121.55048 | 29 ft | 4 kts | 178° |
| 2026-04-26 17:17 | 25.06544 | 121.55047 | 29 ft | 4 kts | 178° |
| 2026-04-26 17:17 | 25.06565 | 121.55046 | 31 ft | 4 kts | 230° |
| 2026-04-26 17:17 | 25.06572 | 121.55065 | 29 ft | 2 kts | 268° |
| 2026-04-26 17:17 | 25.06572 | 121.55080 | 31 ft | 2 kts | 268° |
| 2026-04-26 17:19 | 25.06572 | 121.55073 | 29 ft | 3 kts | 268° |
| 2026-04-26 17:19 | 25.06571 | 121.55034 | 27 ft | 8 kts | 268° |
| 2026-04-26 17:20 | 25.06568 | 121.54937 | 26 ft | 17 kts | 268° |
| 2026-04-26 17:20 | 25.06567 | 121.54891 | 26 ft | 19 kts | 268° |
| 2026-04-26 17:20 | 25.06643 | 121.54602 | 30 ft | 30 kts | 301° |
| 2026-04-26 17:20 | 25.06759 | 121.54426 | 28 ft | 23 kts | 301° |
| 2026-04-26 17:21 | 25.06842 | 121.54279 | 27 ft | 21 kts | 301° |
| 2026-04-26 17:21 | 25.06871 | 121.54225 | 28 ft | 0 kts | 301° |
| 2026-04-26 17:21 | 25.06885 | 121.54199 | 27 ft | 10 kts | 298° |
| 2026-04-26 17:21 | 25.06912 | 121.54072 | 26 ft | 21 kts | 273° |
| 2026-04-26 17:22 | 25.06971 | 121.53986 | 27 ft | 17 kts | 18° |
| 2026-04-26 17:22 | 25.06999 | 121.54168 | 27 ft | 51 kts | 92° |
| 2026-04-26 17:22 | 25.06971 | 121.54919 | 29 ft | 143 kts | 92° |
| 2026-04-26 17:22 | 25.06924 | 121.56221 | 575 ft | 185 kts | 92° |
| 2026-04-26 17:23 | 25.06875 | 121.57818 | 1093 ft | 240 kts | 92° |
| 2026-04-26 17:23 | 25.06763 | 121.59830 | 1525 ft | 290 kts | 99° |
| 2026-04-26 17:23 | 25.05886 | 121.62039 | 1574 ft | 342 kts | 126° |
| 2026-04-26 17:23 | 25.04063 | 121.63836 | 1739 ft | 341 kts | 152° |
| 2026-04-26 17:24 | 25.02048 | 121.64323 | 2045 ft | 274 kts | 190° |
| 2026-04-26 17:24 | 25.00558 | 121.63556 | 2476 ft | 219 kts | 223° |
| 2026-04-26 17:24 | 24.99846 | 121.62145 | 2247 ft | 208 kts | 263° |
| 2026-04-26 17:24 | 24.99967 | 121.60566 | 2765 ft | 214 kts | 278° |
| 2026-04-26 17:25 | 25.00190 | 121.58892 | 3393 ft | 227 kts | 274° |
| 2026-04-26 17:25 | 25.00111 | 121.57138 | 4002 ft | 229 kts | 263° |
| 2026-04-26 17:25 | 24.99830 | 121.55496 | 4560 ft | 217 kts | 258° |
| 2026-04-26 17:25 | 24.99416 | 121.53813 | 5177 ft | 237 kts | 253° |
| 2026-04-26 17:26 | 24.98877 | 121.52048 | 5800 ft | 254 kts | 251° |
| 2026-04-26 17:26 | 24.98252 | 121.50187 | 6446 ft | 262 kts | 249° |
| 2026-04-26 17:26 | 24.97488 | 121.48354 | 7064 ft | 265 kts | 245° |
| 2026-04-26 17:26 | 24.96659 | 121.46534 | 7718 ft | 268 kts | 244° |
| 2026-04-26 17:27 | 24.95818 | 121.44703 | 8345 ft | 269 kts | 244° |
| 2026-04-26 17:27 | 24.94964 | 121.42852 | 8978 ft | 272 kts | 244° |
| 2026-04-26 17:27 | 24.94099 | 121.40984 | 9606 ft | 275 kts | 244° |
| 2026-04-26 17:27 | 24.93228 | 121.39096 | 10239 ft | 277 kts | 244° |
| 2026-04-26 17:28 | 24.92352 | 121.37192 | 10871 ft | 280 kts | 244° |
| 2026-04-26 17:28 | 24.91352 | 121.35340 | 11496 ft | 284 kts | 237° |
| 2026-04-26 17:28 | 24.90229 | 121.33571 | 12113 ft | 287 kts | 237° |
| 2026-04-26 17:28 | 24.89154 | 121.31707 | 12745 ft | 289 kts | 240° |
| 2026-04-26 17:29 | 24.88084 | 121.29813 | 13377 ft | 292 kts | 239° |
| 2026-04-26 17:29 | 24.87373 | 121.28547 | 13769 ft | 296 kts | 240° |
| 2026-04-26 17:29 | 24.85922 | 121.25953 | 13947 ft | 297 kts | 240° |
| 2026-04-26 17:29 | 24.84841 | 121.24014 | 14002 ft | 297 kts | 240° |
| 2026-04-26 17:30 | 24.83759 | 121.22081 | 14023 ft | 297 kts | 240° |
| 2026-04-26 17:30 | 24.82675 | 121.20142 | 14035 ft | 297 kts | 240° |
| 2026-04-26 17:30 | 24.81605 | 121.18233 | 14039 ft | 297 kts | 240° |
| 2026-04-26 17:30 | 24.80519 | 121.16298 | 14036 ft | 297 kts | 239° |
| 2026-04-26 17:31 | 24.79434 | 121.14367 | 14034 ft | 297 kts | 240° |
| 2026-04-26 17:31 | 24.78357 | 121.12432 | 14033 ft | 297 kts | 240° |
| 2026-04-26 17:31 | 24.77272 | 121.10501 | 14040 ft | 297 kts | 239° |
| 2026-04-26 17:31 | 24.76185 | 121.08570 | 14037 ft | 297 kts | 240° |
| 2026-04-26 17:32 | 24.75102 | 121.06640 | 14028 ft | 297 kts | 240° |
| 2026-04-26 17:32 | 24.74017 | 121.04709 | 14040 ft | 297 kts | 240° |
| 2026-04-26 17:32 | 24.72932 | 121.02779 | 14038 ft | 297 kts | 239° |
| 2026-04-26 17:32 | 24.71848 | 121.00850 | 14027 ft | 296 kts | 240° |
| 2026-04-26 17:33 | 24.70779 | 120.98948 | 14032 ft | 296 kts | 239° |
| 2026-04-26 17:33 | 24.69693 | 120.97020 | 14042 ft | 297 kts | 239° |
| 2026-04-26 17:33 | 24.68606 | 120.95090 | 14032 ft | 297 kts | 240° |
| 2026-04-26 17:34 | 24.66050 | 120.91547 | 14040 ft | 298 kts | 227° |
| 2026-04-26 17:34 | 24.64578 | 120.89937 | 14038 ft | 299 kts | 228° |
| 2026-04-26 17:34 | 24.63176 | 120.88255 | 14033 ft | 301 kts | 230° |
| 2026-04-26 17:34 | 24.61710 | 120.86458 | 14056 ft | 330 kts | 230° |
| 2026-04-26 17:35 | 24.60148 | 120.84532 | 14081 ft | 352 kts | 230° |
| 2026-04-26 17:35 | 24.58494 | 120.82497 | 14083 ft | 359 kts | 230° |
| 2026-04-26 17:35 | 24.56832 | 120.80453 | 14063 ft | 358 kts | 230° |
| 2026-04-26 17:35 | 24.55171 | 120.78414 | 14047 ft | 358 kts | 230° |
| 2026-04-26 17:36 | 24.53510 | 120.76376 | 14035 ft | 358 kts | 230° |
| 2026-04-26 17:36 | 24.51852 | 120.74335 | 14029 ft | 358 kts | 230° |
| 2026-04-26 17:36 | 24.50194 | 120.72300 | 14032 ft | 358 kts | 230° |
| 2026-04-26 17:36 | 24.48533 | 120.70264 | 14019 ft | 358 kts | 230° |
| 2026-04-26 17:37 | 24.46875 | 120.68230 | 14006 ft | 357 kts | 230° |
| 2026-04-26 17:37 | 24.45237 | 120.66225 | 13996 ft | 358 kts | 230° |
| 2026-04-26 17:37 | 24.43578 | 120.64193 | 14001 ft | 357 kts | 230° |
| 2026-04-26 17:38 | 24.40260 | 120.60130 | 14006 ft | 357 kts | 230° |
| 2026-04-26 17:38 | 24.38601 | 120.58102 | 14003 ft | 357 kts | 230° |
| 2026-04-26 17:38 | 24.36941 | 120.56074 | 13999 ft | 358 kts | 230° |
| 2026-04-26 17:38 | 24.35282 | 120.54043 | 14003 ft | 357 kts | 230° |
| 2026-04-26 17:39 | 24.33621 | 120.52016 | 13997 ft | 357 kts | 230° |
| 2026-04-26 17:39 | 24.31960 | 120.49987 | 14007 ft | 357 kts | 230° |
| 2026-04-26 17:39 | 24.30321 | 120.47987 | 14002 ft | 357 kts | 230° |
| 2026-04-26 17:39 | 24.28660 | 120.45962 | 13997 ft | 357 kts | 230° |
| 2026-04-26 17:40 | 24.26999 | 120.43934 | 14002 ft | 357 kts | 230° |
| 2026-04-26 17:40 | 24.26437 | 120.43250 | 14003 ft | 357 kts | 230° |
| 2026-04-26 17:40 | 24.23674 | 120.39882 | 13998 ft | 357 kts | 230° |
| 2026-04-26 17:40 | 24.22011 | 120.37858 | 14001 ft | 357 kts | 230° |
| 2026-04-26 17:41 | 24.20350 | 120.35833 | 14003 ft | 357 kts | 230° |
| 2026-04-26 17:41 | 24.18687 | 120.33810 | 14000 ft | 357 kts | 230° |
| 2026-04-26 17:41 | 24.17021 | 120.31785 | 13822 ft | 358 kts | 230° |
| 2026-04-26 17:41 | 24.15383 | 120.29794 | 13419 ft | 355 kts | 230° |
| 2026-04-26 17:42 | 24.13741 | 120.27795 | 13012 ft | 352 kts | 229° |
| 2026-04-26 17:42 | 24.12108 | 120.25813 | 12615 ft | 350 kts | 230° |
| 2026-04-26 17:42 | 24.10485 | 120.23841 | 12213 ft | 348 kts | 230° |
| 2026-04-26 17:42 | 24.08870 | 120.21881 | 11812 ft | 345 kts | 230° |
| 2026-04-26 17:43 | 24.07267 | 120.19934 | 11415 ft | 343 kts | 230° |
| 2026-04-26 17:43 | 24.05670 | 120.18000 | 11013 ft | 341 kts | 230° |
| 2026-04-26 17:43 | 24.04086 | 120.16076 | 10613 ft | 339 kts | 230° |
| 2026-04-26 17:43 | 24.02509 | 120.14167 | 10214 ft | 337 kts | 230° |
| 2026-04-26 17:44 | 24.00962 | 120.12291 | 9820 ft | 335 kts | 230° |
| 2026-04-26 17:44 | 23.99403 | 120.10405 | 9421 ft | 333 kts | 230° |
| 2026-04-26 17:44 | 23.97854 | 120.08529 | 9027 ft | 331 kts | 230° |
| 2026-04-26 17:44 | 23.96313 | 120.06664 | 8622 ft | 329 kts | 230° |
| 2026-04-26 17:45 | 23.94781 | 120.04811 | 8221 ft | 327 kts | 230° |
| 2026-04-26 17:45 | 23.93262 | 120.02974 | 7818 ft | 322 kts | 230° |
| 2026-04-26 17:45 | 23.91791 | 120.01197 | 7405 ft | 309 kts | 230° |
| 2026-04-26 17:45 | 23.90376 | 119.99487 | 6990 ft | 298 kts | 230° |
| 2026-04-26 17:46 | 23.89008 | 119.97832 | 6581 ft | 289 kts | 230° |
| 2026-04-26 17:46 | 23.87692 | 119.96246 | 6170 ft | 282 kts | 230° |
| 2026-04-26 17:46 | 23.86390 | 119.94673 | 5755 ft | 276 kts | 230° |
| 2026-04-26 17:46 | 23.85113 | 119.93132 | 5343 ft | 271 kts | 230° |
| 2026-04-26 17:47 | 23.83854 | 119.91613 | 4934 ft | 268 kts | 230° |
| 2026-04-26 17:47 | 23.83432 | 119.91104 | 4800 ft | 268 kts | 230° |
| 2026-04-26 17:47 | 23.81365 | 119.88611 | 4131 ft | 266 kts | 230° |
| 2026-04-26 17:47 | 23.80132 | 119.87120 | 3733 ft | 264 kts | 230° |
| 2026-04-26 17:48 | 23.78902 | 119.85641 | 3333 ft | 263 kts | 230° |
| 2026-04-26 17:48 | 23.77681 | 119.84177 | 3119 ft | 256 kts | 230° |
| 2026-04-26 17:48 | 23.76516 | 119.82775 | 3056 ft | 251 kts | 229° |
| 2026-04-26 17:48 | 23.75102 | 119.81659 | 3025 ft | 257 kts | 202° |
| 2026-04-26 17:49 | 23.73308 | 119.81491 | 2883 ft | 266 kts | 172° |
| 2026-04-26 17:49 | 23.71621 | 119.82324 | 2680 ft | 268 kts | 148° |
| 2026-04-26 17:49 | 23.70095 | 119.83486 | 2607 ft | 267 kts | 147° |
| 2026-04-26 17:49 | 23.68555 | 119.84626 | 2564 ft | 268 kts | 149° |
| 2026-04-26 17:50 | 23.66946 | 119.85637 | 2543 ft | 266 kts | 159° |
| 2026-04-26 17:50 | 23.65210 | 119.86315 | 2529 ft | 264 kts | 166° |
| 2026-04-26 17:50 | 23.63429 | 119.86772 | 2530 ft | 262 kts | 175° |
| 2026-04-26 17:50 | 23.61644 | 119.86996 | 2533 ft | 262 kts | 176° |
| 2026-04-26 17:51 | 23.59840 | 119.87317 | 2534 ft | 262 kts | 176° |
| 2026-04-26 17:51 | 23.58059 | 119.87350 | 2600 ft | 246 kts | 186° |
| 2026-04-26 17:51 | 23.56398 | 119.87132 | 2661 ft | 246 kts | 193° |
| 2026-04-26 17:51 | 23.54759 | 119.86727 | 2788 ft | 241 kts | 198° |
| 2026-04-26 17:52 | 23.53163 | 119.86212 | 2763 ft | 237 kts | 201° |
| 2026-04-26 17:52 | 23.51653 | 119.85521 | 2739 ft | 235 kts | 207° |
| 2026-04-26 17:52 | 23.50211 | 119.84773 | 2790 ft | 218 kts | 209° |
| 2026-04-26 17:52 | 23.48921 | 119.84086 | 2795 ft | 209 kts | 210° |
| 2026-04-26 17:53 | 23.47656 | 119.83365 | 2875 ft | 207 kts | 213° |
| 2026-04-26 17:53 | 23.46488 | 119.82484 | 2845 ft | 202 kts | 222° |
| 2026-04-26 17:53 | 23.45489 | 119.81423 | 2830 ft | 201 kts | 226° |
| 2026-04-26 17:54 | 23.43493 | 119.79209 | 3031 ft | 224 kts | 231° |
| 2026-04-26 17:54 | 23.42566 | 119.78052 | 3503 ft | 188 kts | 232° |
| 2026-04-26 17:54 | 23.41770 | 119.76944 | 3212 ft | 184 kts | 237° |
| 2026-04-26 17:54 | 23.41095 | 119.75770 | 2941 ft | 181 kts | 244° |
| 2026-04-26 17:55 | 23.40532 | 119.74545 | 2685 ft | 180 kts | 246° |
| 2026-04-26 17:55 | 23.39997 | 119.73316 | 2427 ft | 179 kts | 246° |
| 2026-04-26 17:55 | 23.39479 | 119.72108 | 2183 ft | 178 kts | 248° |
| 2026-04-26 17:55 | 23.39038 | 119.70857 | 1931 ft | 177 kts | 253° |
| 2026-04-26 17:56 | 23.38734 | 119.69557 | 1815 ft | 174 kts | 259° |
| 2026-04-26 17:56 | 23.38334 | 119.67084 | 1719 ft | 159 kts | 261° |
| 2026-04-26 17:57 | 23.37997 | 119.64819 | 1709 ft | 145 kts | 264° |
| 2026-04-26 17:57 | 23.37958 | 119.63757 | 1703 ft | 140 kts | 270° |
| 2026-04-26 17:57 | 23.37981 | 119.62721 | 1696 ft | 135 kts | 272° |
| 2026-04-26 17:57 | 23.38016 | 119.61717 | 1699 ft | 137 kts | 272° |
| 2026-04-26 17:58 | 23.39920 | 119.59309 | 2510 ft | 154 kts | 350° |
| 2026-04-26 17:59 | 23.42116 | 119.59011 | 2165 ft | 165 kts | 350° |
| 2026-04-26 17:59 | 23.43219 | 119.58879 | 1840 ft | 150 kts | 349° |
| 2026-04-26 17:59 | 23.44174 | 119.58753 | 1737 ft | 131 kts | 349° |
| 2026-04-26 17:59 | 23.45035 | 119.58690 | 1642 ft | 122 kts | 360° |
| 2026-04-26 18:00 | 23.45946 | 119.58941 | 1687 ft | 148 kts | 15° |
| 2026-04-26 18:00 | 23.46938 | 119.59283 | 1731 ft | 149 kts | 12° |
| 2026-04-26 18:00 | 23.47926 | 119.59616 | 1729 ft | 150 kts | 14° |
| 2026-04-26 18:00 | 23.48911 | 119.59978 | 1538 ft | 149 kts | 14° |
| 2026-04-26 18:01 | 23.49888 | 119.60325 | 1334 ft | 147 kts | 14° |
| 2026-04-26 18:01 | 23.50857 | 119.60669 | 1134 ft | 146 kts | 14° |
| 2026-04-26 18:01 | 23.51820 | 119.61019 | 938 ft | 146 kts | 14° |
| 2026-04-26 18:01 | 23.52770 | 119.61357 | 748 ft | 146 kts | 14° |
| 2026-04-26 18:02 | 23.53730 | 119.61703 | 558 ft | 145 kts | 14° |
| 2026-04-26 18:02 | 23.54054 | 119.61819 | 485 ft | 145 kts | 15° |
| 2026-04-26 18:02 | 23.55625 | 119.62382 | 152 ft | 137 kts | 15° |
| 2026-04-26 18:02 | 23.56407 | 119.62659 | 102 ft | 86 kts | 18° |
| 2026-04-26 18:03 | 23.56818 | 119.62809 | 99 ft | 59 kts | 19° |
| 2026-04-26 18:03 | 23.57183 | 119.62944 | 87 ft | 44 kts | 18° |
| 2026-04-26 18:03 | 23.57260 | 119.63086 | 88 ft | 11 kts | 109° |
| 2026-04-26 18:03 | 23.57255 | 119.63102 | 86 ft | 8 kts | 109° |
| 2026-04-26 18:04 | 23.57229 | 119.63166 | 87 ft | 10 kts | 128° |
| 2026-04-26 18:04 | 23.57167 | 119.63180 | 90 ft | 10 kts | 195° |
| 2026-04-26 18:04 | 23.57102 | 119.63157 | 92 ft | 10 kts | 198° |
| 2026-04-26 18:05 | 23.56960 | 119.63106 | 96 ft | 12 kts | 198° |
| 2026-04-26 18:05 | 23.56877 | 119.63076 | 96 ft | 14 kts | 198° |
| 2026-04-26 18:05 | 23.56780 | 119.63041 | 98 ft | 16 kts | 198° |
| 2026-04-26 18:05 | 23.56667 | 119.63000 | 98 ft | 18 kts | 199° |
| 2026-04-26 18:06 | 23.56539 | 119.62952 | 98 ft | 21 kts | 199° |
| 2026-04-26 18:06 | 23.56397 | 119.62903 | 99 ft | 23 kts | 198° |
| 2026-04-26 18:06 | 23.56245 | 119.62852 | 99 ft | 19 kts | 197° |
| 2026-04-26 18:06 | 23.56156 | 119.62821 | 98 ft | 21 kts | 198° |
| 2026-04-26 18:07 | 23.56086 | 119.62842 | 98 ft | 8 kts | 113° |
| 2026-04-26 18:07 | 23.56079 | 119.62867 | 97 ft | 3 kts | 108° |
| 2026-04-26 18:07 | 23.56075 | 119.62881 | 97 ft | 0 kts | 107° |